Time;durP1;ratioP1;P1;durP2;ratioP2;P2;SDS_P1;SDS_P2;PMS_P1;PMS_P2;Temp;Humidity;BMP_temperature;BMP_pressure;BME280_temperature;BME280_humidity;BME280_pressure;Samples;Min_cycle;Max_cycle;Signal;HPM_P1;HPM_P2
2022/06/02 00:00:05;;;;;;;13.98;10.10;;;;;;;;;;5091056;28;20421;-61
2022/06/02 00:02:34;;;;;;;12.93;9.75;;;;;;;;;;5093993;28;20093;-61
2022/06/02 00:05:20;;;;;;;12.07;9.75;;;;;;;;;;5099508;28;20047;-61
2022/06/02 00:07:49;;;;;;;13.52;9.55;;;;;;;;;;5091119;28;20036;-61
2022/06/02 00:10:31;;;;;;;12.57;9.80;;;;;;;;;;5105938;28;20092;-61
2022/06/02 00:13:15;;;;;;;11.02;9.35;;;;;;;;;;5094001;28;20452;-62
2022/06/02 00:15:52;;;;;;;11.50;8.52;;;;;;;;;;5091463;28;20058;-61
2022/06/02 00:18:33;;;;;;;11.10;8.43;;;;;;;;;;5087030;28;20055;-62
2022/06/02 00:21:03;;;;;;;10.15;8.57;;;;;;;;;;5092612;28;20043;-61
2022/06/02 00:23:48;;;;;;;12.20;9.63;;;;;;;;;;5089149;28;20048;-61
2022/06/02 00:26:32;;;;;;;10.98;8.82;;;;;;;;;;5095014;28;20115;-61
2022/06/02 00:29:04;;;;;;;10.95;9.02;;;;;;;;;;5090193;28;20036;-62
2022/06/02 00:31:30;;;;;;;10.32;9.13;;;;;;;;;;5103731;28;20106;-61
2022/06/02 00:34:02;;;;;;;10.80;9.35;;;;;;;;;;5083731;28;20036;-62
2022/06/02 00:36:32;;;;;;;13.88;10.38;;;;;;;;;;5088145;28;20085;-62
2022/06/02 00:38:59;;;;;;;12.30;9.60;;;;;;;;;;5098618;28;20039;-62
2022/06/02 00:41:32;;;;;;;11.70;9.13;;;;;;;;;;5096206;28;20299;-62
2022/06/02 00:44:13;;;;;;;12.70;8.90;;;;;;;;;;5097433;28;20040;-61
2022/06/02 00:47:01;;;;;;;12.73;9.10;;;;;;;;;;5090411;28;20502;-61
2022/06/02 00:49:39;;;;;;;12.95;9.25;;;;;;;;;;5113192;22;20420;-64
2022/06/02 00:52:19;;;;;;;10.55;8.80;;;;;;;;;;5093251;28;20666;-64
2022/06/02 00:57:44;;;;;;;12.23;9.02;;;;;;;;;;5090544;28;20497;-64
2022/06/02 01:00:11;;;;;;;11.10;9.02;;;;;;;;;;5092465;28;20056;-64
2022/06/02 01:02:46;;;;;;;12.27;8.82;;;;;;;;;;5066052;28;20486;-64
2022/06/02 01:05:14;;;;;;;12.00;8.70;;;;;;;;;;5070378;28;20044;-64
2022/06/02 01:07:53;;;;;;;10.82;8.65;;;;;;;;;;5070273;28;20036;-64
2022/06/02 01:10:31;;;;;;;11.60;8.90;;;;;;;;;;5065982;28;20134;-64
2022/06/02 01:13:17;;;;;;;13.10;9.50;;;;;;;;;;5069122;28;20044;-64
2022/06/02 01:15:49;;;;;;;11.23;8.60;;;;;;;;;;5067217;28;20036;-64
2022/06/02 01:18:16;;;;;;;11.30;9.02;;;;;;;;;;5060833;28;20032;-64
2022/06/02 01:20:47;;;;;;;12.55;9.38;;;;;;;;;;5069256;28;20036;-64
2022/06/02 01:23:28;;;;;;;12.27;8.82;;;;;;;;;;5068057;28;20044;-64
2022/06/02 01:26:09;;;;;;;10.85;8.82;;;;;;;;;;5071455;28;20348;-64
2022/06/02 01:28:35;;;;;;;;;;;;;;;;;;5079586;28;20498;-64
2022/06/02 01:31:07;;;;;;;11.20;8.48;;;;;;;;;;5082747;28;19923;-64
2022/06/02 01:33:53;;;;;;;10.68;8.68;;;;;;;;;;5070923;28;20037;-64
2022/06/02 01:36:25;;;;;;;11.00;8.45;;;;;;;;;;5068260;28;20032;-64
2022/06/02 01:38:54;;;;;;;11.88;8.70;;;;;;;;;;5070433;28;20119;-64
2022/06/02 01:41:39;;;;;;;10.77;8.55;;;;;;;;;;5072828;28;20036;-64
2022/06/02 01:44:05;;;;;;;12.63;9.27;;;;;;;;;;5065658;28;20039;-64
2022/06/02 01:46:31;;;;;;;11.40;8.85;;;;;;;;;;5072828;28;20393;-64
2022/06/02 01:49:03;;;;;;;11.05;8.45;;;;;;;;;;5092038;28;20043;-64
2022/06/02 01:51:34;;;;;;;9.73;7.90;;;;;;;;;;5075818;28;20043;-64
2022/06/02 01:54:06;;;;;;;10.82;6.60;;;;;;;;;;5072366;28;20090;-63
2022/06/02 01:56:49;;;;;;;10.45;7.65;;;;;;;;;;5070367;28;20044;-64
2022/06/02 01:59:27;;;;;;;9.85;7.22;;;;;;;;;;5074093;28;20522;-64
2022/06/02 02:02:07;;;;;;;9.43;8.38;;;;;;;;;;5066917;28;20087;-64
2022/06/02 02:04:33;;;;;;;9.20;7.75;;;;;;;;;;5065365;28;20040;-64
2022/06/02 02:07:29;;;;;;;10.60;8.02;;;;;;;;;;5060705;28;20056;-64
2022/06/02 02:09:58;;;;;;;11.32;8.80;;;;;;;;;;5051975;28;20506;-64
2022/06/02 02:12:27;;;;;;;11.82;9.07;;;;;;;;;;5073928;28;20059;-64
2022/06/02 02:15:32;;;;;;;10.27;8.45;;;;;;;;;;5063703;28;20105;-64
2022/06/02 02:17:57;;;;;;;10.63;8.38;;;;;;;;;;4977399;28;20412;-64
2022/06/02 02:20:41;;;;;;;8.40;6.75;;;;;;;;;;4989925;28;20057;-64
2022/06/02 02:23:18;;;;;;;8.52;6.57;;;;;;;;;;5030097;28;20048;-64
2022/06/02 02:26:22;;;;;;;8.48;6.80;;;;;;;;;;5063569;28;20482;-64
2022/06/02 02:29:07;;;;;;;8.00;6.47;;;;;;;;;;5044495;28;20041;-63
2022/06/02 02:31:36;;;;;;;7.57;6.25;;;;;;;;;;5029826;28;20034;-64
2022/06/02 02:34:07;;;;;;;7.53;6.35;;;;;;;;;;5047488;28;20114;-64
2022/06/02 02:36:40;;;;;;;9.27;6.53;;;;;;;;;;5064564;28;20070;-63
2022/06/02 02:39:15;;;;;;;8.90;6.90;;;;;;;;;;5073351;28;20075;-63
2022/06/02 02:41:57;;;;;;;9.30;7.18;;;;;;;;;;5071655;28;20397;-64
2022/06/02 02:44:38;;;;;;;9.23;7.45;;;;;;;;;;5058154;28;20509;-64
2022/06/02 02:47:04;;;;;;;;;;;;;;;;;;5062190;28;20040;-64
2022/06/02 02:49:57;;;;;;;11.43;8.02;;;;;;;;;;5070436;28;19916;-64
2022/06/02 02:52:28;;;;;;;11.65;7.80;;;;;;;;;;5044547;28;20044;-64
2022/06/02 02:55:01;;;;;;;7.00;5.93;;;;;;;;;;5067092;28;20406;-64
2022/06/02 02:57:46;;;;;;;8.32;6.10;;;;;;;;;;5064434;28;20036;-64
2022/06/02 03:00:36;;;;;;;8.73;6.90;;;;;;;;;;5063654;28;20536;-64
2022/06/02 03:03:18;;;;;;;9.10;7.27;;;;;;;;;;5066641;28;20060;-64
2022/06/02 03:05:59;;;;;;;9.73;7.53;;;;;;;;;;5064166;28;20401;-64
2022/06/02 03:08:28;;;;;;;8.63;7.22;;;;;;;;;;5067183;28;20071;-64
2022/06/02 03:10:57;;;;;;;7.65;6.65;;;;;;;;;;5070515;28;20041;-64
2022/06/02 03:13:45;;;;;;;9.52;7.32;;;;;;;;;;5067051;28;20041;-64
2022/06/02 03:16:13;;;;;;;11.13;7.45;;;;;;;;;;5058972;28;20110;-64
2022/06/02 03:18:42;;;;;;;9.20;7.60;;;;;;;;;;5067064;28;20041;-63
2022/06/02 03:21:17;;;;;;;9.52;7.75;;;;;;;;;;5061903;28;20084;-63
2022/06/02 03:23:43;;;;;;;8.05;6.55;;;;;;;;;;5047707;28;20493;-63
2022/06/02 03:26:12;;;;;;;10.60;8.00;;;;;;;;;;5047734;28;20041;-64
2022/06/02 03:28:57;;;;;;;10.95;8.13;;;;;;;;;;5046253;28;20040;-64
2022/06/02 03:31:37;;;;;;;10.60;7.88;;;;;;;;;;5063334;28;20032;-64
2022/06/02 03:34:12;;;;;;;9.43;7.65;;;;;;;;;;5063382;28;20071;-63
2022/06/02 03:36:41;;;;;;;9.80;7.80;;;;;;;;;;5063494;28;20112;-64
2022/06/02 03:39:08;;;;;;;12.75;8.25;;;;;;;;;;5067948;28;20036;-63
2022/06/02 03:41:40;;;;;;;10.57;8.70;;;;;;;;;;5065678;28;20497;-64
2022/06/02 03:44:15;;;;;;;10.68;8.60;;;;;;;;;;5068474;28;20044;-63
2022/06/02 03:46:41;;;;;;;11.48;8.30;;;;;;;;;;5080799;28;20044;-64
2022/06/02 03:49:07;;;;;;;9.88;7.78;;;;;;;;;;5068011;28;20452;-64
2022/06/02 03:51:40;;;;;;;11.48;8.27;;;;;;;;;;5060286;28;20097;-64
2022/06/02 03:54:09;;;;;;;9.48;7.82;;;;;;;;;;5057012;28;20040;-64
2022/06/02 03:56:53;;;;;;;10.43;7.78;;;;;;;;;;5062376;28;20097;-64
2022/06/02 03:59:25;;;;;;;11.10;8.20;;;;;;;;;;5041108;28;20409;-64
2022/06/02 04:01:56;;;;;;;10.90;7.97;;;;;;;;;;5065227;28;20047;-64
2022/06/02 04:04:24;;;;;;;11.38;8.50;;;;;;;;;;5066859;28;20075;-64
2022/06/02 04:06:58;;;;;;;11.27;8.80;;;;;;;;;;5066782;28;20520;-64
2022/06/02 04:09:41;;;;;;;11.80;8.48;;;;;;;;;;5068793;28;20064;-63
2022/06/02 04:15:10;;;;;;;11.68;8.65;;;;;;;;;;5058790;28;20044;-64
2022/06/02 04:17:38;;;;;;;11.48;9.00;;;;;;;;;;5060770;28;20082;-64
2022/06/02 04:23:02;;;;;;;11.00;8.07;;;;;;;;;;5062580;28;20041;-64
2022/06/02 04:25:36;;;;;;;12.18;8.65;;;;;;;;;;5067721;28;20039;-64
2022/06/02 04:28:24;;;;;;;9.95;8.20;;;;;;;;;;5064330;28;20505;-64
2022/06/02 04:31:08;;;;;;;11.57;8.55;;;;;;;;;;5049437;28;20040;-64
2022/06/02 04:33:36;;;;;;;11.57;8.40;;;;;;;;;;5059239;28;20037;-64
2022/06/02 04:36:24;;;;;;;13.52;9.40;;;;;;;;;;5078537;28;20041;-64
2022/06/02 04:38:53;;;;;;;14.32;9.40;;;;;;;;;;5061102;28;20502;-64
2022/06/02 04:41:19;;;;;;;13.00;9.07;;;;;;;;;;5067779;28;20037;-64
2022/06/02 04:43:54;;;;;;;12.65;8.50;;;;;;;;;;5063289;28;20409;-64
2022/06/02 04:46:26;;;;;;;11.68;8.93;;;;;;;;;;5061309;28;20263;-64
2022/06/02 04:48:56;;;;;;;12.73;8.98;;;;;;;;;;5061478;28;20099;-64
2022/06/02 04:51:27;;;;;;;13.50;9.40;;;;;;;;;;5064996;28;20119;-64
2022/06/02 04:54:03;;;;;;;13.35;9.45;;;;;;;;;;5067231;28;20037;-64
2022/06/02 04:56:32;;;;;;;10.93;8.68;;;;;;;;;;5070075;28;20037;-64
2022/06/02 04:59:19;;;;;;;12.98;9.52;;;;;;;;;;5073529;28;20047;-64
2022/06/02 05:01:56;;;;;;;12.32;9.75;;;;;;;;;;5061365;28;20410;-64
2022/06/02 05:04:22;;;;;;;14.10;9.98;;;;;;;;;;5067969;28;20115;-64
2022/06/02 05:06:48;;;;;;;15.35;9.27;;;;;;;;;;5072400;28;20044;-64
2022/06/02 05:09:22;;;;;;;15.15;11.00;;;;;;;;;;5068292;28;20032;-64
2022/06/02 05:11:51;;;;;;;20.17;13.13;;;;;;;;;;5070394;28;20032;-62
2022/06/02 05:14:17;;;;;;;16.85;11.25;;;;;;;;;;5069772;28;20436;-62
2022/06/02 05:16:49;;;;;;;17.67;12.05;;;;;;;;;;5069195;28;20551;-63
2022/06/02 05:19:25;;;;;;;16.67;11.88;;;;;;;;;;5072833;28;20053;-62
2022/06/02 05:22:10;;;;;;;16.00;12.05;;;;;;;;;;5065145;28;20083;-63
2022/06/02 05:24:41;;;;;;;18.08;11.80;;;;;;;;;;5067698;28;20036;-63
2022/06/02 05:27:26;;;;;;;16.42;11.95;;;;;;;;;;5070150;28;20037;-62
2022/06/02 05:30:04;;;;;;;16.02;12.70;;;;;;;;;;5064836;28;20044;-62
2022/06/02 05:32:48;;;;;;;16.83;12.20;;;;;;;;;;5061858;28;20116;-63
2022/06/02 05:35:29;;;;;;;16.52;11.98;;;;;;;;;;5060481;28;20036;-62
2022/06/02 05:38:00;;;;;;;17.02;12.32;;;;;;;;;;5063621;28;20044;-63
2022/06/02 05:40:38;;;;;;;17.58;12.30;;;;;;;;;;5066876;28;20375;-62
2022/06/02 05:43:25;;;;;;;16.58;12.45;;;;;;;;;;5070610;28;20052;-62
2022/06/02 05:45:51;;;;;;;18.90;12.68;;;;;;;;;;5067009;28;20076;-62
2022/06/02 05:48:29;;;;;;;17.05;12.15;;;;;;;;;;5063529;28;20118;-62
2022/06/02 05:51:10;;;;;;;19.48;12.63;;;;;;;;;;5065421;28;20506;-63
2022/06/02 05:54:12;;;;;;;17.08;12.20;;;;;;;;;;5055538;28;20051;-63
2022/06/02 05:56:39;;;;;;;18.85;11.95;;;;;;;;;;4989234;28;20038;-63
2022/06/02 05:59:05;;;;;;;15.18;10.90;;;;;;;;;;5049814;28;20447;-63
2022/06/02 06:01:54;;;;;;;14.80;11.45;;;;;;;;;;5062570;28;20123;-62
2022/06/02 06:04:26;;;;;;;15.63;11.63;;;;;;;;;;5061394;28;20048;-63
2022/06/02 06:06:55;;;;;;;16.17;11.13;;;;;;;;;;5072793;28;20071;-62
2022/06/02 06:09:30;;;;;;;16.10;11.38;;;;;;;;;;5071695;28;20036;-62
2022/06/02 06:11:59;;;;;;;14.65;11.13;;;;;;;;;;5070128;28;20063;-62
2022/06/02 06:14:43;;;;;;;14.32;10.75;;;;;;;;;;5086595;28;20036;-63
2022/06/02 06:17:15;;;;;;;14.50;10.73;;;;;;;;;;5066855;28;20037;-62
2022/06/02 06:20:02;;;;;;;13.77;10.48;;;;;;;;;;5060737;28;20052;-63
2022/06/02 06:22:28;;;;;;;13.00;9.68;;;;;;;;;;5063651;28;20040;-63
2022/06/02 06:25:02;;;;;;;11.32;8.50;;;;;;;;;;5064366;28;20557;-63
2022/06/02 06:27:44;;;;;;;11.82;8.20;;;;;;;;;;5073560;28;20096;-63
2022/06/02 06:30:19;;;;;;;11.63;8.88;;;;;;;;;;5067486;28;20033;-63
2022/06/02 06:33:06;;;;;;;12.23;8.98;;;;;;;;;;5086067;28;20405;-63
2022/06/02 06:35:42;;;;;;;13.60;9.07;;;;;;;;;;5067074;28;20032;-63
2022/06/02 06:38:16;;;;;;;8.40;7.07;;;;;;;;;;5063124;28;20457;-63
2022/06/02 06:40:46;;;;;;;9.07;6.82;;;;;;;;;;5050547;28;20059;-63
2022/06/02 06:43:35;;;;;;;11.02;7.10;;;;;;;;;;5067321;28;20494;-63
2022/06/02 06:46:21;;;;;;;10.18;7.05;;;;;;;;;;5063940;28;20072;-63
2022/06/02 06:48:57;;;;;;;6.55;5.70;;;;;;;;;;5027599;28;20106;-63
2022/06/02 06:51:29;;;;;;;9.18;6.20;;;;;;;;;;5060331;28;20040;-63
2022/06/02 06:53:55;;;;;;;10.70;6.18;;;;;;;;;;5065702;28;20070;-63
2022/06/02 06:56:38;;;;;;;8.18;6.00;;;;;;;;;;5066465;28;20530;-64
2022/06/02 06:59:13;;;;;;;8.40;6.35;;;;;;;;;;5064391;28;20048;-64
2022/06/02 07:01:39;;;;;;;8.07;5.72;;;;;;;;;;5062407;28;20033;-64
2022/06/02 07:04:17;;;;;;;7.25;5.70;;;;;;;;;;5095722;22;20512;-63
2022/06/02 07:07:01;;;;;;;7.65;6.25;;;;;;;;;;5107797;28;20058;-64
2022/06/02 07:09:27;;;;;;;6.90;5.28;;;;;;;;;;5109758;28;20114;-63
2022/06/02 07:14:52;;;;;;;6.10;4.63;;;;;;;;;;5089454;28;20048;-64
2022/06/02 07:17:23;;;;;;;6.43;4.28;;;;;;;;;;5088232;28;20043;-62
2022/06/02 07:19:59;;;;;;;7.05;4.15;;;;;;;;;;5091387;28;20102;-63
2022/06/02 07:22:29;;;;;;;5.20;3.95;;;;;;;;;;5090269;28;20112;-63
2022/06/02 07:24:55;;;;;;;5.15;3.88;;;;;;;;;;5098677;28;20048;-64
2022/06/02 07:27:27;;;;;;;5.07;3.63;;;;;;;;;;5093753;28;20038;-64
2022/06/02 07:30:12;;;;;;;6.32;4.05;;;;;;;;;;5082761;28;20097;-64
2022/06/02 07:32:38;;;;;;;6.72;4.70;;;;;;;;;;5089382;28;20489;-64
2022/06/02 07:35:24;;;;;;;4.38;3.97;;;;;;;;;;5091496;28;20052;-65
2022/06/02 07:37:55;;;;;;;4.50;3.35;;;;;;;;;;5052351;28;20092;-64
2022/06/02 07:40:30;;;;;;;6.00;3.40;;;;;;;;;;5100700;28;20042;-64
2022/06/02 07:42:56;;;;;;;5.40;3.50;;;;;;;;;;5091016;28;20051;-65
2022/06/02 07:45:22;;;;;;;7.28;3.50;;;;;;;;;;5066633;28;20036;-65
2022/06/02 07:47:54;;;;;;;6.65;3.75;;;;;;;;;;5080347;28;20040;-65
2022/06/02 07:50:25;;;;;;;4.80;3.15;;;;;;;;;;5057036;28;20477;-65
2022/06/02 07:52:57;;;;;;;3.55;2.95;;;;;;;;;;5068857;28;20064;-65
2022/06/02 07:55:35;;;;;;;3.78;2.97;;;;;;;;;;5095580;28;20067;-64
2022/06/02 07:58:21;;;;;;;5.25;3.22;;;;;;;;;;5078862;28;20460;-64
2022/06/02 08:00:52;;;;;;;3.60;3.20;;;;;;;;;;5092824;28;20091;-64
2022/06/02 08:03:18;;;;;;;4.40;2.92;;;;;;;;;;5091564;28;20044;-66
2022/06/02 08:05:53;;;;;;;4.88;2.92;;;;;;;;;;5076303;28;20444;-64
2022/06/02 08:08:30;;;;;;;5.15;2.70;;;;;;;;;;5080757;28;20111;-63
2022/06/02 08:10:59;;;;;;;3.35;2.63;;;;;;;;;;5071401;28;20056;-64
2022/06/02 08:13:35;;;;;;;3.30;2.17;;;;;;;;;;5081891;28;20036;-64
2022/06/02 08:16:00;;;;;;;3.75;2.80;;;;;;;;;;5088079;28;20040;-64
2022/06/02 08:18:30;;;;;;;4.80;2.90;;;;;;;;;;5084875;28;20051;-64
2022/06/02 08:20:56;;;;;;;5.32;3.17;;;;;;;;;;5084927;28;20413;-63
2022/06/02 08:23:25;;;;;;;7.22;2.78;;;;;;;;;;5092786;28;20524;-65
2022/06/02 08:25:51;;;;;;;4.20;2.70;;;;;;;;;;5096664;28;20044;-64
2022/06/02 08:28:30;;;;;;;5.25;2.80;;;;;;;;;;5086288;28;20458;-65
2022/06/02 08:31:08;;;;;;;4.90;3.35;;;;;;;;;;5094481;28;20036;-66
2022/06/02 08:33:58;;;;;;;4.78;3.10;;;;;;;;;;5089760;28;20071;-65
2022/06/02 08:36:24;;;;;;;4.07;2.85;;;;;;;;;;5062112;28;20064;-65
2022/06/02 08:39:02;;;;;;;6.05;2.45;;;;;;;;;;5092112;28;20058;-65
2022/06/02 08:41:47;;;;;;;2.90;2.63;;;;;;;;;;5079178;28;20035;-65
2022/06/02 08:44:18;;;;;;;4.05;2.53;;;;;;;;;;5087007;28;20037;-65
2022/06/02 08:46:57;;;;;;;2.75;2.28;;;;;;;;;;5094052;28;20093;-65
2022/06/02 08:49:42;;;;;;;3.15;2.38;;;;;;;;;;5093507;28;20065;-64
2022/06/02 08:52:13;;;;;;;3.25;2.50;;;;;;;;;;5094773;28;20036;-64
2022/06/02 08:54:55;;;;;;;3.33;2.75;;;;;;;;;;5090934;28;20047;-64
2022/06/02 08:57:47;;;;;;;4.20;2.72;;;;;;;;;;5089827;28;20508;-65
2022/06/02 09:00:14;;;;;;;2.83;2.33;;;;;;;;;;5088659;28;20040;-64
2022/06/02 09:02:57;;;;;;;3.00;2.67;;;;;;;;;;5097406;28;20036;-65
2022/06/02 09:05:42;;;;;;;4.45;2.40;;;;;;;;;;5087286;28;20051;-65
2022/06/02 09:08:27;;;;;;;5.05;3.15;;;;;;;;;;5080864;28;20036;-64
2022/06/02 09:10:56;;;;;;;4.43;2.55;;;;;;;;;;5063474;28;20075;-65
2022/06/02 09:13:33;;;;;;;4.07;2.80;;;;;;;;;;5085378;28;20048;-64
2022/06/02 09:16:18;;;;;;;10.02;5.38;;;;;;;;;;5099940;28;20048;-64
2022/06/02 09:19:00;;;;;;;7.70;4.28;;;;;;;;;;5087580;28;20094;-64
2022/06/02 09:21:29;;;;;;;3.03;2.40;;;;;;;;;;5075863;28;20044;-64
2022/06/02 09:23:55;;;;;;;1076.43;281.10;;;;;;;;;;5083748;28;20071;-64
2022/06/02 09:26:40;;;;;;;993.92;323.90;;;;;;;;;;5078471;28;20094;-64
2022/06/02 09:29:12;;;;;;;1941.15;571.53;;;;;;;;;;5069065;28;20115;-64
2022/06/02 09:31:57;;;;;;;1992.57;465.38;;;;;;;;;;5084018;28;20039;-65
2022/06/02 09:34:23;;;;;;;1999.90;999.90;;;;;;;;;;5087905;28;20066;-64
2022/06/02 09:37:07;;;;;;;1459.80;407.08;;;;;;;;;;5081239;28;20067;-65
2022/06/02 09:39:54;;;;;;;113.88;14.07;;;;;;;;;;5067610;28;20044;-64
2022/06/02 09:42:32;;;;;;;15.70;4.10;;;;;;;;;;5081917;28;20492;-64
2022/06/02 09:45:17;;;;;;;1999.90;865.13;;;;;;;;;;5098528;28;20040;-64
2022/06/02 09:47:46;;;;;;;28.35;8.57;;;;;;;;;;5096023;28;20046;-64
2022/06/02 09:50:14;;;;;;;9.55;3.80;;;;;;;;;;5081743;28;20126;-64
2022/06/02 09:52:59;;;;;;;5.38;2.50;;;;;;;;;;5085152;28;20037;-64
2022/06/02 09:55:28;;;;;;;8.57;2.80;;;;;;;;;;5089600;28;20043;-65
2022/06/02 09:57:58;;;;;;;4.15;2.30;;;;;;;;;;5079486;28;20044;-64
2022/06/02 10:00:42;;;;;;;14.98;2.90;;;;;;;;;;5088527;28;20051;-64
2022/06/02 10:03:14;;;;;;;5.20;2.60;;;;;;;;;;5096873;28;20039;-64
2022/06/02 10:05:43;;;;;;;7.40;2.88;;;;;;;;;;5088911;28;20517;-65
2022/06/02 10:08:21;;;;;;;7.95;3.17;;;;;;;;;;5077931;28;20139;-65
2022/06/02 10:10:50;;;;;;;16.98;3.35;;;;;;;;;;5086697;28;20166;-65
2022/06/02 10:13:32;;;;;;;3.60;2.50;;;;;;;;;;5085508;28;20532;-65
2022/06/02 10:16:06;;;;;;;10.25;3.70;;;;;;;;;;5084912;28;20032;-65
2022/06/02 10:18:50;;;;;;;3.63;2.78;;;;;;;;;;5085936;28;20028;-65
2022/06/02 10:21:16;;;;;;;4.10;2.50;;;;;;;;;;5086564;28;20039;-64
2022/06/02 10:23:57;;;;;;;5.35;2.40;;;;;;;;;;5093280;28;20036;-65
2022/06/02 10:26:23;;;;;;;5.97;2.70;;;;;;;;;;5067295;28;20040;-65
2022/06/02 10:29:04;;;;;;;5.40;2.65;;;;;;;;;;5086507;28;20047;-65
2022/06/02 10:31:36;;;;;;;3.40;2.70;;;;;;;;;;5080957;28;20861;-64
2022/06/02 10:34:02;;;;;;;6.93;2.33;;;;;;;;;;5112906;28;20040;-64
2022/06/02 10:36:35;;;;;;;3.08;2.08;;;;;;;;;;5074810;28;20036;-65
2022/06/02 10:39:20;;;;;;;4.07;2.33;;;;;;;;;;5087132;28;20036;-64
2022/06/02 10:41:59;;;;;;;3.67;2.78;;;;;;;;;;5085767;28;20098;-65
2022/06/02 10:44:25;;;;;;;4.18;2.40;;;;;;;;;;5084830;28;20401;-65
2022/06/02 10:47:17;;;;;;;3.65;2.00;;;;;;;;;;5084611;28;20119;-65
2022/06/02 10:49:59;;;;;;;10.77;2.65;;;;;;;;;;5084860;28;20397;-65
2022/06/02 10:52:44;;;;;;;3.63;2.33;;;;;;;;;;5105455;28;20392;-65
2022/06/02 10:55:13;;;;;;;2.90;1.90;;;;;;;;;;5076757;28;20451;-65
2022/06/02 10:57:50;;;;;;;2.15;1.70;;;;;;;;;;5091688;28;20050;-65
2022/06/02 11:00:35;;;;;;;2.75;1.65;;;;;;;;;;5096520;28;20655;-65
2022/06/02 11:03:20;;;;;;;2.42;1.58;;;;;;;;;;5081911;28;20516;-65
2022/06/02 11:06:04;;;;;;;4.32;2.00;;;;;;;;;;5107440;28;20047;-65
2022/06/02 11:08:47;;;;;;;2.67;2.10;;;;;;;;;;5079072;28;20486;-65
2022/06/02 11:11:30;;;;;;;2.47;2.03;;;;;;;;;;5080148;28;20230;-65
2022/06/02 11:14:10;;;;;;;3.72;1.90;;;;;;;;;;5074373;28;20033;-65
2022/06/02 11:16:55;;;;;;;3.05;2.00;;;;;;;;;;5105728;28;20401;-65
2022/06/02 11:19:24;;;;;;;2.20;1.90;;;;;;;;;;5080141;28;20860;-65
2022/06/02 11:22:09;;;;;;;3.45;1.80;;;;;;;;;;5090874;28;20072;-65
2022/06/02 11:24:38;;;;;;;2.60;1.98;;;;;;;;;;5083302;28;20043;-65
2022/06/02 11:27:19;;;;;;;9.93;1.80;;;;;;;;;;5091132;28;20497;-65
2022/06/02 11:29:48;;;;;;;2.53;1.70;;;;;;;;;;5099020;28;20366;-64
2022/06/02 11:32:27;;;;;;;2.60;1.60;;;;;;;;;;5099488;28;20119;-65
2022/06/02 11:34:53;;;;;;;2.97;2.15;;;;;;;;;;5097724;28;20040;-64
2022/06/02 11:37:31;;;;;;;4.75;2.00;;;;;;;;;;5096131;28;20040;-65
2022/06/02 11:40:10;;;;;;;7.13;2.30;;;;;;;;;;5084713;28;20106;-65
2022/06/02 11:42:42;;;;;;;2.70;1.80;;;;;;;;;;5090198;28;20051;-65
2022/06/02 11:45:23;;;;;;;2.67;1.80;;;;;;;;;;5091970;28;20466;-65
2022/06/02 11:48:03;;;;;;;3.42;2.28;;;;;;;;;;5096136;28;20492;-65
2022/06/02 11:50:48;;;;;;;4.10;2.15;;;;;;;;;;5088362;28;20040;-64
2022/06/02 11:53:38;;;;;;;2.53;2.10;;;;;;;;;;5090654;28;20038;-65
2022/06/02 11:56:05;;;;;;;3.13;1.70;;;;;;;;;;5086865;28;20127;-65
2022/06/02 11:58:33;;;;;;;4.45;2.00;;;;;;;;;;5087598;28;20040;-65
2022/06/02 12:01:18;;;;;;;2.08;1.40;;;;;;;;;;5092015;28;20079;-65
2022/06/02 12:03:50;;;;;;;6.85;1.80;;;;;;;;;;5102012;28;20046;-64
2022/06/02 12:06:35;;;;;;;2.00;1.65;;;;;;;;;;5115855;28;20058;-66
2022/06/02 12:09:10;;;;;;;2.13;1.73;;;;;;;;;;5093001;28;20074;-66
2022/06/02 12:11:48;;;;;;;3.90;1.77;;;;;;;;;;5098067;28;20043;-66
2022/06/02 12:14:29;;;;;;;15.10;2.70;;;;;;;;;;5088157;28;20452;-66
2022/06/02 12:16:55;;;;;;;;;;;;;;;;;;5093346;28;20520;-65
2022/06/02 12:19:39;;;;;;;75.55;6.55;;;;;;;;;;5104757;28;20006;-66
2022/06/02 12:22:11;;;;;;;205.25;18.02;;;;;;;;;;5092560;28;20583;-65
2022/06/02 12:24:38;;;;;;;4.60;1.80;;;;;;;;;;5093065;28;20051;-65
2022/06/02 12:27:24;;;;;;;4.40;1.75;;;;;;;;;;5096597;28;20047;-64
2022/06/02 12:29:50;;;;;;;2.75;1.30;;;;;;;;;;5091558;28;20079;-65
2022/06/02 12:32:16;;;;;;;3.58;1.42;;;;;;;;;;5098494;28;20080;-65
2022/06/02 12:34:42;;;;;;;1.35;1.23;;;;;;;;;;5111932;28;20075;-65
2022/06/02 12:37:17;;;;;;;3.10;1.60;;;;;;;;;;5090342;28;20044;-65
2022/06/02 12:40:09;;;;;;;2.22;1.48;;;;;;;;;;5103025;28;20036;-65
2022/06/02 12:42:38;;;;;;;2.67;1.40;;;;;;;;;;5087328;28;20048;-64
2022/06/02 12:45:20;;;;;;;2.72;1.27;;;;;;;;;;5090775;28;20135;-65
2022/06/02 12:47:55;;;;;;;2.35;1.20;;;;;;;;;;5095246;28;20048;-65
2022/06/02 12:50:36;;;;;;;2.00;1.50;;;;;;;;;;5097936;28;20032;-65
2022/06/02 12:53:20;;;;;;;2.55;1.77;;;;;;;;;;5105559;28;20039;-65
2022/06/02 12:56:15;;;;;;;1.58;1.17;;;;;;;;;;5090144;28;20044;-65
2022/06/02 12:58:47;;;;;;;1.67;1.17;;;;;;;;;;5093408;28;20032;-65
2022/06/02 13:01:22;;;;;;;2.28;1.20;;;;;;;;;;5077358;28;20036;-65
2022/06/02 13:04:07;;;;;;;1.92;1.20;;;;;;;;;;5113569;22;20043;-64
2022/06/02 13:06:36;;;;;;;2.25;1.30;;;;;;;;;;5105195;28;20417;-64
2022/06/02 13:09:21;;;;;;;2.83;1.02;;;;;;;;;;5098334;28;20110;-65
2022/06/02 13:11:49;;;;;;;3.25;1.33;;;;;;;;;;5108356;28;20043;-65
2022/06/02 13:14:19;;;;;;;2.90;1.33;;;;;;;;;;5109771;28;20420;-65
2022/06/02 13:17:12;;;;;;;4.13;1.20;;;;;;;;;;5108443;28;20039;-65
2022/06/02 13:19:46;;;;;;;1.83;1.20;;;;;;;;;;5099618;28;20392;-64
2022/06/02 13:22:21;;;;;;;1.65;1.05;;;;;;;;;;5107813;28;20443;-64
2022/06/02 13:24:50;;;;;;;1.40;1.10;;;;;;;;;;5106976;28;20035;-64
2022/06/02 13:27:22;;;;;;;0.95;0.90;;;;;;;;;;5109383;28;20035;-64
2022/06/02 13:30:09;;;;;;;2.03;1.02;;;;;;;;;;5110668;28;20035;-64
2022/06/02 13:32:55;;;;;;;1.55;1.13;;;;;;;;;;5103110;28;20042;-64
2022/06/02 13:35:40;;;;;;;1.25;1.00;;;;;;;;;;5103512;28;20389;-64
2022/06/02 13:38:06;;;;;;;1.42;1.10;;;;;;;;;;5099078;28;20122;-64
2022/06/02 13:40:45;;;;;;;1.30;1.20;;;;;;;;;;5110289;28;20131;-64
2022/06/02 13:43:17;;;;;;;2.10;1.10;;;;;;;;;;5097828;28;20451;-64
2022/06/02 13:46:03;;;;;;;1.35;1.25;;;;;;;;;;5098290;28;20131;-64
2022/06/02 13:48:48;;;;;;;2.80;1.10;;;;;;;;;;5107068;28;20503;-64
2022/06/02 13:51:37;;;;;;;1.67;1.20;;;;;;;;;;5105537;28;20046;-64
2022/06/02 14:00:03;;;;;;;2.08;1.10;;;;;;;;;;5104290;28;20082;-65
2022/06/02 14:02:46;;;;;;;1.63;1.02;;;;;;;;;;5102246;28;20042;-64
2022/06/02 14:05:20;;;;;;;1.92;1.13;;;;;;;;;;5102583;28;20453;-63
2022/06/02 14:07:46;;;;;;;1.33;0.90;;;;;;;;;;5100529;28;20118;-65
2022/06/02 14:10:24;;;;;;;1.85;1.10;;;;;;;;;;5108283;28;20481;-64
2022/06/02 14:12:52;;;;;;;2.88;1.10;;;;;;;;;;5103774;28;20123;-65
2022/06/02 14:15:26;;;;;;;1.60;1.30;;;;;;;;;;5106690;28;20039;-65
2022/06/02 14:17:57;;;;;;;2.78;1.67;;;;;;;;;;5105119;27;20089;-65
2022/06/02 14:20:24;;;;;;;2.00;1.30;;;;;;;;;;5094895;28;20040;-64
2022/06/02 14:22:59;;;;;;;4.03;1.38;;;;;;;;;;5106682;28;20167;-64
2022/06/02 14:25:25;;;;;;;2.70;1.40;;;;;;;;;;5102707;28;20035;-64
2022/06/02 14:27:51;;;;;;;2.55;1.40;;;;;;;;;;5101744;28;20044;-64
2022/06/02 14:30:19;;;;;;;3.00;1.30;;;;;;;;;;5102358;28;20032;-65
2022/06/02 14:33:04;;;;;;;1.80;1.20;;;;;;;;;;5105925;28;20493;-65
2022/06/02 14:35:36;;;;;;;2.65;1.42;;;;;;;;;;5111256;27;20047;-65
2022/06/02 14:38:20;;;;;;;1.77;1.65;;;;;;;;;;5117839;27;20435;-65
2022/06/02 14:40:53;;;;;;;1.67;1.50;;;;;;;;;;5103057;27;20564;-65
2022/06/02 14:43:29;;;;;;;1.92;1.40;;;;;;;;;;5108899;28;20047;-65
2022/06/02 14:46:00;;;;;;;2.35;1.35;;;;;;;;;;5105574;28;20134;-65
2022/06/02 14:48:33;;;;;;;2.05;1.27;;;;;;;;;;5102404;28;20040;-65
2022/06/02 14:51:08;;;;;;;1.77;1.23;;;;;;;;;;5104638;28;20397;-66
2022/06/02 14:53:41;;;;;;;1.83;1.15;;;;;;;;;;5104469;28;20438;-65
2022/06/02 14:56:19;;;;;;;2.10;1.33;;;;;;;;;;5101779;28;20067;-65
2022/06/02 14:59:02;;;;;;;1.48;1.00;;;;;;;;;;5097206;28;20052;-65
2022/06/02 15:01:31;;;;;;;1.95;1.30;;;;;;;;;;5104851;28;20046;-66
2022/06/02 15:04:06;;;;;;;1.60;1.17;;;;;;;;;;5103204;28;20051;-65
2022/06/02 15:06:41;;;;;;;1.50;1.10;;;;;;;;;;5102721;28;20040;-65
2022/06/02 15:09:10;;;;;;;2.35;1.38;;;;;;;;;;5108650;28;20116;-66
2022/06/02 15:11:36;;;;;;;2.45;1.30;;;;;;;;;;5111042;27;20393;-66
2022/06/02 15:14:09;;;;;;;1.30;1.20;;;;;;;;;;5105381;28;20046;-65
2022/06/02 15:16:48;;;;;;;2.90;1.20;;;;;;;;;;5106196;28;20076;-65
2022/06/02 15:19:26;;;;;;;1.75;1.20;;;;;;;;;;5107088;27;20475;-66
2022/06/02 15:22:10;;;;;;;1.90;1.30;;;;;;;;;;5104578;28;20096;-66
2022/06/02 15:24:37;;;;;;;1.88;1.20;;;;;;;;;;5106350;27;20125;-65
2022/06/02 15:27:21;;;;;;;2.28;1.30;;;;;;;;;;5106074;28;20580;-65
2022/06/02 15:30:10;;;;;;;2.60;1.40;;;;;;;;;;5103789;27;20070;-65
2022/06/02 15:32:39;;;;;;;3.03;1.42;;;;;;;;;;5091217;28;20036;-65
2022/06/02 15:35:05;;;;;;;2.47;1.05;;;;;;;;;;5097702;28;20042;-65
2022/06/02 15:37:31;;;;;;;1.92;1.20;;;;;;;;;;5110782;28;20032;-65
2022/06/02 15:40:12;;;;;;;3.15;1.58;;;;;;;;;;5100491;28;20118;-65
2022/06/02 15:42:51;;;;;;;2.65;1.10;;;;;;;;;;5110635;28;20354;-66